sensor_id;sensor_type;location;lat;lon;timestamp;P1;durP1;ratioP1;P2;durP2;ratioP2
54406;SDS011;40313;50.308;30.374;2023-03-30T00:01:53;12.70;;;4.93;;
54406;SDS011;40313;50.308;30.374;2023-03-30T00:05:20;6.82;;;5.68;;
54406;SDS011;40313;50.308;30.374;2023-03-30T00:08:46;14.70;;;5.80;;
54406;SDS011;40313;50.308;30.374;2023-03-30T00:12:11;5.10;;;4.60;;
54406;SDS011;40313;50.308;30.374;2023-03-30T00:15:37;11.15;;;4.15;;
54406;SDS011;40313;50.308;30.374;2023-03-30T00:19:02;6.75;;;3.05;;
54406;SDS011;40313;50.308;30.374;2023-03-30T00:22:34;7.35;;;4.57;;
54406;SDS011;40313;50.308;30.374;2023-03-30T00:26:00;6.15;;;4.15;;
54406;SDS011;40313;50.308;30.374;2023-03-30T00:29:25;8.65;;;4.32;;
54406;SDS011;40313;50.308;30.374;2023-03-30T00:32:50;3.13;;;2.83;;
54406;SDS011;40313;50.308;30.374;2023-03-30T00:36:15;2.75;;;2.55;;
54406;SDS011;40313;50.308;30.374;2023-03-30T00:39:42;3.38;;;2.70;;
54406;SDS011;40313;50.308;30.374;2023-03-30T00:43:10;5.50;;;2.97;;
54406;SDS011;40313;50.308;30.374;2023-03-30T00:46:50;4.45;;;2.85;;
54406;SDS011;40313;50.308;30.374;2023-03-30T00:50:19;3.20;;;3.00;;
54406;SDS011;40313;50.308;30.374;2023-03-30T00:53:46;2.60;;;1.95;;
54406;SDS011;40313;50.308;30.374;2023-03-30T00:57:13;3.50;;;2.47;;
54406;SDS011;40313;50.308;30.374;2023-03-30T01:00:39;3.90;;;2.47;;
54406;SDS011;40313;50.308;30.374;2023-03-30T01:04:06;2.83;;;2.53;;
54406;SDS011;40313;50.308;30.374;2023-03-30T01:07:32;2.47;;;2.28;;
54406;SDS011;40313;50.308;30.374;2023-03-30T01:11:00;3.22;;;2.90;;
54406;SDS011;40313;50.308;30.374;2023-03-30T01:14:25;2.20;;;1.98;;
54406;SDS011;40313;50.308;30.374;2023-03-30T01:17:56;2.45;;;2.25;;
54406;SDS011;40313;50.308;30.374;2023-03-30T01:21:41;1.98;;;1.88;;
54406;SDS011;40313;50.308;30.374;2023-03-30T01:25:29;2.08;;;1.88;;
54406;SDS011;40313;50.308;30.374;2023-03-30T01:29:03;3.30;;;3.00;;
54406;SDS011;40313;50.308;30.374;2023-03-30T01:32:52;9.02;;;2.55;;
54406;SDS011;40313;50.308;30.374;2023-03-30T01:37:04;10.88;;;2.78;;
54406;SDS011;40313;50.308;30.374;2023-03-30T01:41:06;2.85;;;2.65;;
54406;SDS011;40313;50.308;30.374;2023-03-30T01:44:42;5.97;;;3.72;;
54406;SDS011;40313;50.308;30.374;2023-03-30T01:48:14;3.75;;;3.45;;
54406;SDS011;40313;50.308;30.374;2023-03-30T01:51:44;4.90;;;3.30;;
54406;SDS011;40313;50.308;30.374;2023-03-30T01:55:18;3.90;;;3.35;;
54406;SDS011;40313;50.308;30.374;2023-03-30T01:58:48;5.03;;;3.10;;
54406;SDS011;40313;50.308;30.374;2023-03-30T02:02:19;3.45;;;2.60;;
54406;SDS011;40313;50.308;30.374;2023-03-30T02:05:48;3.95;;;2.63;;
54406;SDS011;40313;50.308;30.374;2023-03-30T02:09:19;2.90;;;2.53;;
54406;SDS011;40313;50.308;30.374;2023-03-30T02:12:47;3.13;;;2.08;;
54406;SDS011;40313;50.308;30.374;2023-03-30T02:16:16;9.25;;;4.20;;
54406;SDS011;40313;50.308;30.374;2023-03-30T02:19:46;7.18;;;4.50;;
54406;SDS011;40313;50.308;30.374;2023-03-30T02:23:13;6.10;;;3.42;;
54406;SDS011;40313;50.308;30.374;2023-03-30T02:26:44;8.68;;;4.80;;
54406;SDS011;40313;50.308;30.374;2023-03-30T02:30:11;10.65;;;4.57;;
54406;SDS011;40313;50.308;30.374;2023-03-30T02:33:40;7.35;;;5.05;;
54406;SDS011;40313;50.308;30.374;2023-03-30T02:37:17;5.35;;;4.97;;
54406;SDS011;40313;50.308;30.374;2023-03-30T02:41:08;5.32;;;4.35;;
54406;SDS011;40313;50.308;30.374;2023-03-30T02:44:57;4.53;;;4.13;;
54406;SDS011;40313;50.308;30.374;2023-03-30T02:48:37;3.45;;;3.22;;
54406;SDS011;40313;50.308;30.374;2023-03-30T02:52:16;7.80;;;4.30;;
54406;SDS011;40313;50.308;30.374;2023-03-30T02:55:49;8.82;;;4.57;;
54406;SDS011;40313;50.308;30.374;2023-03-30T02:59:24;6.93;;;5.93;;
54406;SDS011;40313;50.308;30.374;2023-03-30T03:02:55;9.25;;;6.50;;
54406;SDS011;40313;50.308;30.374;2023-03-30T03:06:23;7.05;;;5.18;;
54406;SDS011;40313;50.308;30.374;2023-03-30T03:09:51;6.00;;;5.25;;
54406;SDS011;40313;50.308;30.374;2023-03-30T03:13:17;7.35;;;5.22;;
54406;SDS011;40313;50.308;30.374;2023-03-30T03:16:42;8.45;;;5.18;;
54406;SDS011;40313;50.308;30.374;2023-03-30T03:20:11;19.63;;;6.15;;
54406;SDS011;40313;50.308;30.374;2023-03-30T03:23:37;15.35;;;7.03;;
54406;SDS011;40313;50.308;30.374;2023-03-30T03:27:04;14.98;;;6.53;;
54406;SDS011;40313;50.308;30.374;2023-03-30T03:30:29;6.63;;;5.05;;
54406;SDS011;40313;50.308;30.374;2023-03-30T03:33:54;5.55;;;5.05;;
54406;SDS011;40313;50.308;30.374;2023-03-30T03:37:21;18.60;;;7.50;;
54406;SDS011;40313;50.308;30.374;2023-03-30T03:40:48;40.70;;;8.57;;
54406;SDS011;40313;50.308;30.374;2023-03-30T03:44:13;24.75;;;9.23;;
54406;SDS011;40313;50.308;30.374;2023-03-30T03:47:38;17.75;;;7.60;;
54406;SDS011;40313;50.308;30.374;2023-03-30T03:51:04;26.23;;;8.48;;
54406;SDS011;40313;50.308;30.374;2023-03-30T03:54:31;18.38;;;9.02;;
54406;SDS011;40313;50.308;30.374;2023-03-30T03:57:58;16.15;;;9.40;;
54406;SDS011;40313;50.308;30.374;2023-03-30T04:01:26;6.82;;;5.97;;
54406;SDS011;40313;50.308;30.374;2023-03-30T04:04:52;14.68;;;6.32;;
54406;SDS011;40313;50.308;30.374;2023-03-30T04:08:17;25.83;;;8.98;;
54406;SDS011;40313;50.308;30.374;2023-03-30T04:11:44;20.60;;;9.10;;
54406;SDS011;40313;50.308;30.374;2023-03-30T04:15:10;11.43;;;8.35;;
54406;SDS011;40313;50.308;30.374;2023-03-30T04:18:35;20.63;;;8.25;;
54406;SDS011;40313;50.308;30.374;2023-03-30T04:22:00;18.98;;;14.25;;
54406;SDS011;40313;50.308;30.374;2023-03-30T04:25:26;12.00;;;10.83;;
54406;SDS011;40313;50.308;30.374;2023-03-30T04:28:53;8.93;;;7.63;;
54406;SDS011;40313;50.308;30.374;2023-03-30T04:32:21;5.53;;;5.10;;
54406;SDS011;40313;50.308;30.374;2023-03-30T04:35:46;14.15;;;6.32;;
54406;SDS011;40313;50.308;30.374;2023-03-30T04:39:11;7.35;;;6.63;;
54406;SDS011;40313;50.308;30.374;2023-03-30T04:42:40;6.32;;;5.82;;
54406;SDS011;40313;50.308;30.374;2023-03-30T04:46:06;15.70;;;10.07;;
54406;SDS011;40313;50.308;30.374;2023-03-30T04:49:32;9.40;;;6.28;;
54406;SDS011;40313;50.308;30.374;2023-03-30T04:52:57;9.25;;;7.75;;
54406;SDS011;40313;50.308;30.374;2023-03-30T04:56:22;11.25;;;8.82;;
54406;SDS011;40313;50.308;30.374;2023-03-30T04:59:47;8.10;;;5.43;;
54406;SDS011;40313;50.308;30.374;2023-03-30T05:03:13;9.18;;;4.85;;
54406;SDS011;40313;50.308;30.374;2023-03-30T05:06:38;4.63;;;4.22;;
54406;SDS011;40313;50.308;30.374;2023-03-30T05:10:04;11.18;;;4.70;;
54406;SDS011;40313;50.308;30.374;2023-03-30T05:13:29;18.67;;;5.03;;
54406;SDS011;40313;50.308;30.374;2023-03-30T05:16:54;4.20;;;3.90;;
54406;SDS011;40313;50.308;30.374;2023-03-30T05:20:21;5.40;;;4.67;;
54406;SDS011;40313;50.308;30.374;2023-03-30T05:23:46;4.63;;;4.22;;
54406;SDS011;40313;50.308;30.374;2023-03-30T05:27:12;5.80;;;5.40;;
54406;SDS011;40313;50.308;30.374;2023-03-30T05:30:37;5.10;;;4.45;;
54406;SDS011;40313;50.308;30.374;2023-03-30T05:34:02;8.32;;;5.05;;
54406;SDS011;40313;50.308;30.374;2023-03-30T05:37:28;10.45;;;5.10;;
54406;SDS011;40313;50.308;30.374;2023-03-30T05:40:53;10.32;;;3.58;;
54406;SDS011;40313;50.308;30.374;2023-03-30T05:44:18;4.30;;;3.90;;
54406;SDS011;40313;50.308;30.374;2023-03-30T05:47:43;4.75;;;3.28;;
54406;SDS011;40313;50.308;30.374;2023-03-30T05:51:08;5.97;;;3.00;;
54406;SDS011;40313;50.308;30.374;2023-03-30T05:54:35;5.20;;;3.38;;
54406;SDS011;40313;50.308;30.374;2023-03-30T05:58:00;3.25;;;2.95;;
54406;SDS011;40313;50.308;30.374;2023-03-30T06:01:25;7.50;;;2.92;;
54406;SDS011;40313;50.308;30.374;2023-03-30T06:04:51;4.47;;;3.00;;
54406;SDS011;40313;50.308;30.374;2023-03-30T06:08:17;4.03;;;3.63;;
54406;SDS011;40313;50.308;30.374;2023-03-30T06:11:44;5.50;;;2.60;;
54406;SDS011;40313;50.308;30.374;2023-03-30T06:18:34;1.88;;;1.77;;
54406;SDS011;40313;50.308;30.374;2023-03-30T06:21:59;4.30;;;3.53;;
54406;SDS011;40313;50.308;30.374;2023-03-30T06:25:24;4.38;;;3.38;;
54406;SDS011;40313;50.308;30.374;2023-03-30T06:28:51;4.57;;;3.90;;
54406;SDS011;40313;50.308;30.374;2023-03-30T06:32:16;24.90;;;15.25;;
54406;SDS011;40313;50.308;30.374;2023-03-30T06:35:44;23.40;;;13.80;;
54406;SDS011;40313;50.308;30.374;2023-03-30T06:39:10;8.25;;;4.30;;
54406;SDS011;40313;50.308;30.374;2023-03-30T06:42:37;5.75;;;3.42;;
54406;SDS011;40313;50.308;30.374;2023-03-30T06:46:04;3.90;;;3.58;;
54406;SDS011;40313;50.308;30.374;2023-03-30T06:49:30;3.50;;;2.40;;
54406;SDS011;40313;50.308;30.374;2023-03-30T06:52:55;3.85;;;2.47;;
54406;SDS011;40313;50.308;30.374;2023-03-30T06:56:20;1.73;;;1.50;;
54406;SDS011;40313;50.308;30.374;2023-03-30T06:59:45;11.57;;;5.40;;
54406;SDS011;40313;50.308;30.374;2023-03-30T07:03:11;1.38;;;1.27;;
54406;SDS011;40313;50.308;30.374;2023-03-30T07:06:36;1.45;;;1.35;;
54406;SDS011;40313;50.308;30.374;2023-03-30T07:10:02;1.30;;;1.10;;
54406;SDS011;40313;50.308;30.374;2023-03-30T07:13:27;4.03;;;1.33;;
54406;SDS011;40313;50.308;30.374;2023-03-30T07:16:52;3.00;;;1.88;;
54406;SDS011;40313;50.308;30.374;2023-03-30T07:20:19;12.80;;;3.25;;
54406;SDS011;40313;50.308;30.374;2023-03-30T07:27:09;5.80;;;1.13;;
54406;SDS011;40313;50.308;30.374;2023-03-30T07:30:35;1.45;;;0.88;;
54406;SDS011;40313;50.308;30.374;2023-03-30T07:34:01;2.83;;;1.23;;
54406;SDS011;40313;50.308;30.374;2023-03-30T07:37:27;6.35;;;1.77;;
54406;SDS011;40313;50.308;30.374;2023-03-30T07:40:52;2.25;;;1.35;;
54406;SDS011;40313;50.308;30.374;2023-03-30T07:44:17;4.30;;;2.00;;
54406;SDS011;40313;50.308;30.374;2023-03-30T07:47:43;9.30;;;3.30;;
54406;SDS011;40313;50.308;30.374;2023-03-30T07:51:08;9.45;;;2.55;;
54406;SDS011;40313;50.308;30.374;2023-03-30T07:54:35;5.20;;;2.42;;
54406;SDS011;40313;50.308;30.374;2023-03-30T07:58:01;2.45;;;1.27;;
54406;SDS011;40313;50.308;30.374;2023-03-30T08:01:26;6.70;;;3.25;;
54406;SDS011;40313;50.308;30.374;2023-03-30T08:04:52;4.30;;;3.92;;
54406;SDS011;40313;50.308;30.374;2023-03-30T08:08:18;10.38;;;3.30;;
54406;SDS011;40313;50.308;30.374;2023-03-30T08:11:45;4.50;;;2.40;;
54406;SDS011;40313;50.308;30.374;2023-03-30T08:15:10;6.30;;;2.50;;
54406;SDS011;40313;50.308;30.374;2023-03-30T08:18:35;5.53;;;2.22;;
54406;SDS011;40313;50.308;30.374;2023-03-30T08:22:01;11.82;;;2.58;;
54406;SDS011;40313;50.308;30.374;2023-03-30T08:25:26;3.95;;;2.72;;
54406;SDS011;40313;50.308;30.374;2023-03-30T08:28:53;7.90;;;1.85;;
54406;SDS011;40313;50.308;30.374;2023-03-30T08:32:19;11.65;;;6.47;;
54406;SDS011;40313;50.308;30.374;2023-03-30T08:35:44;2.60;;;1.02;;
54406;SDS011;40313;50.308;30.374;2023-03-30T08:39:09;2.10;;;1.35;;
54406;SDS011;40313;50.308;30.374;2023-03-30T08:42:40;3.75;;;1.80;;
54406;SDS011;40313;50.308;30.374;2023-03-30T08:49:39;3.15;;;1.10;;
54406;SDS011;40313;50.308;30.374;2023-03-30T10:48:15;2.72;;;1.48;;
54406;SDS011;40313;50.308;30.374;2023-03-30T10:51:47;12.32;;;2.80;;
54406;SDS011;40313;50.308;30.374;2023-03-30T10:55:20;1.38;;;1.10;;
54406;SDS011;40313;50.308;30.374;2023-03-30T10:58:55;4.00;;;1.40;;
54406;SDS011;40313;50.308;30.374;2023-03-30T11:02:38;2.70;;;0.77;;
54406;SDS011;40313;50.308;30.374;2023-03-30T11:06:13;1.00;;;0.80;;
54406;SDS011;40313;50.308;30.374;2023-03-30T11:09:44;2.03;;;1.73;;
54406;SDS011;40313;50.308;30.374;2023-03-30T11:13:13;9.27;;;1.80;;
54406;SDS011;40313;50.308;30.374;2023-03-30T11:16:43;3.35;;;0.88;;
54406;SDS011;40313;50.308;30.374;2023-03-30T11:20:22;1.30;;;1.00;;
54406;SDS011;40313;50.308;30.374;2023-03-30T11:23:52;3.85;;;2.58;;
54406;SDS011;40313;50.308;30.374;2023-03-30T11:27:21;2.30;;;1.98;;
54406;SDS011;40313;50.308;30.374;2023-03-30T11:30:57;3.65;;;2.85;;
54406;SDS011;40313;50.308;30.374;2023-03-30T11:34:37;1.55;;;1.45;;
54406;SDS011;40313;50.308;30.374;2023-03-30T11:38:12;4.53;;;1.38;;
54406;SDS011;40313;50.308;30.374;2023-03-30T11:41:41;3.20;;;1.63;;
54406;SDS011;40313;50.308;30.374;2023-03-30T11:45:15;2.50;;;1.65;;
54406;SDS011;40313;50.308;30.374;2023-03-30T11:48:48;5.93;;;1.63;;
54406;SDS011;40313;50.308;30.374;2023-03-30T12:45:21;0.90;;;0.85;;
54406;SDS011;40313;50.308;30.374;2023-03-30T12:48:55;11.85;;;7.90;;
54406;SDS011;40313;50.308;30.374;2023-03-30T12:52:32;3.00;;;2.78;;
54406;SDS011;40313;50.308;30.374;2023-03-30T13:03:34;1.67;;;0.70;;
54406;SDS011;40313;50.308;30.374;2023-03-30T13:07:03;7.55;;;1.50;;
54406;SDS011;40313;50.308;30.374;2023-03-30T13:10:35;6.63;;;2.92;;
54406;SDS011;40313;50.308;30.374;2023-03-30T13:17:58;6.07;;;2.17;;
54406;SDS011;40313;50.308;30.374;2023-03-30T13:21:45;1.25;;;1.05;;
54406;SDS011;40313;50.308;30.374;2023-03-30T13:25:27;3.72;;;1.00;;
54406;SDS011;40313;50.308;30.374;2023-03-30T13:29:03;1.60;;;1.50;;
54406;SDS011;40313;50.308;30.374;2023-03-30T13:32:42;2.33;;;2.13;;
54406;SDS011;40313;50.308;30.374;2023-03-30T13:36:14;2.30;;;1.52;;
54406;SDS011;40313;50.308;30.374;2023-03-30T13:39:45;10.77;;;1.92;;
54406;SDS011;40313;50.308;30.374;2023-03-30T13:43:18;5.22;;;2.03;;
54406;SDS011;40313;50.308;30.374;2023-03-30T13:46:59;4.75;;;2.38;;
54406;SDS011;40313;50.308;30.374;2023-03-30T13:50:39;7.28;;;3.35;;
54406;SDS011;40313;50.308;30.374;2023-03-30T13:54:10;2.90;;;2.70;;
54406;SDS011;40313;50.308;30.374;2023-03-30T13:57:41;3.67;;;2.03;;
54406;SDS011;40313;50.308;30.374;2023-03-30T14:01:09;3.78;;;2.03;;
54406;SDS011;40313;50.308;30.374;2023-03-30T14:04:38;2.00;;;1.80;;
54406;SDS011;40313;50.308;30.374;2023-03-30T14:08:07;2.88;;;2.22;;
54406;SDS011;40313;50.308;30.374;2023-03-30T14:11:37;2.08;;;1.77;;
54406;SDS011;40313;50.308;30.374;2023-03-30T14:15:13;6.63;;;1.65;;
54406;SDS011;40313;50.308;30.374;2023-03-30T14:18:42;3.75;;;2.20;;
54406;SDS011;40313;50.308;30.374;2023-03-30T14:22:14;1.50;;;1.23;;
54406;SDS011;40313;50.308;30.374;2023-03-30T14:25:43;6.10;;;2.55;;
54406;SDS011;40313;50.308;30.374;2023-03-30T14:29:13;2.55;;;2.35;;
54406;SDS011;40313;50.308;30.374;2023-03-30T14:32:44;4.63;;;1.60;;
54406;SDS011;40313;50.308;30.374;2023-03-30T14:36:09;1.83;;;1.63;;
54406;SDS011;40313;50.308;30.374;2023-03-30T14:39:38;2.92;;;2.08;;
54406;SDS011;40313;50.308;30.374;2023-03-30T14:43:05;9.45;;;1.85;;
54406;SDS011;40313;50.308;30.374;2023-03-30T14:49:57;3.42;;;3.13;;
54406;SDS011;40313;50.308;30.374;2023-03-30T14:56:52;8.20;;;4.82;;
54406;SDS011;40313;50.308;30.374;2023-03-30T15:00:20;5.95;;;3.53;;
54406;SDS011;40313;50.308;30.374;2023-03-30T15:03:49;8.18;;;4.38;;
54406;SDS011;40313;50.308;30.374;2023-03-30T15:07:16;2.72;;;2.35;;
54406;SDS011;40313;50.308;30.374;2023-03-30T15:10:48;11.50;;;2.10;;
54406;SDS011;40313;50.308;30.374;2023-03-30T15:14:18;3.55;;;2.45;;
54406;SDS011;40313;50.308;30.374;2023-03-30T15:17:46;7.22;;;2.13;;
54406;SDS011;40313;50.308;30.374;2023-03-30T15:21:12;2.88;;;1.90;;
54406;SDS011;40313;50.308;30.374;2023-03-30T15:24:49;18.63;;;8.68;;
54406;SDS011;40313;50.308;30.374;2023-03-30T15:28:16;15.95;;;7.63;;
54406;SDS011;40313;50.308;30.374;2023-03-30T15:31:44;4.47;;;4.07;;
54406;SDS011;40313;50.308;30.374;2023-03-30T15:35:15;6.45;;;5.97;;
54406;SDS011;40313;50.308;30.374;2023-03-30T15:38:47;27.27;;;14.50;;
54406;SDS011;40313;50.308;30.374;2023-03-30T15:42:22;37.72;;;17.40;;
54406;SDS011;40313;50.308;30.374;2023-03-30T15:45:50;11.48;;;6.75;;
54406;SDS011;40313;50.308;30.374;2023-03-30T15:49:20;19.40;;;12.13;;
54406;SDS011;40313;50.308;30.374;2023-03-30T15:52:46;14.50;;;7.85;;
54406;SDS011;40313;50.308;30.374;2023-03-30T15:56:26;4.68;;;3.25;;
54406;SDS011;40313;50.308;30.374;2023-03-30T15:59:54;3.67;;;3.00;;
54406;SDS011;40313;50.308;30.374;2023-03-30T16:03:32;4.20;;;3.65;;
54406;SDS011;40313;50.308;30.374;2023-03-30T16:10:23;6.30;;;5.82;;
54406;SDS011;40313;50.308;30.374;2023-03-30T16:13:49;14.57;;;4.65;;
54406;SDS011;40313;50.308;30.374;2023-03-30T16:17:17;7.60;;;4.15;;
54406;SDS011;40313;50.308;30.374;2023-03-30T16:20:43;4.57;;;4.18;;
54406;SDS011;40313;50.308;30.374;2023-03-30T16:24:08;4.40;;;4.03;;
54406;SDS011;40313;50.308;30.374;2023-03-30T16:27:34;4.15;;;3.80;;
54406;SDS011;40313;50.308;30.374;2023-03-30T16:31:00;6.28;;;3.65;;
54406;SDS011;40313;50.308;30.374;2023-03-30T16:34:25;6.95;;;4.85;;
54406;SDS011;40313;50.308;30.374;2023-03-30T16:37:52;8.27;;;4.90;;
54406;SDS011;40313;50.308;30.374;2023-03-30T16:41:18;7.15;;;4.47;;
54406;SDS011;40313;50.308;30.374;2023-03-30T16:44:44;4.63;;;4.13;;
54406;SDS011;40313;50.308;30.374;2023-03-30T16:48:09;7.65;;;5.90;;
54406;SDS011;40313;50.308;30.374;2023-03-30T16:51:38;14.10;;;7.53;;
54406;SDS011;40313;50.308;30.374;2023-03-30T16:55:05;7.28;;;6.57;;
54406;SDS011;40313;50.308;30.374;2023-03-30T16:58:30;8.32;;;6.90;;
54406;SDS011;40313;50.308;30.374;2023-03-30T17:01:56;20.25;;;12.77;;
54406;SDS011;40313;50.308;30.374;2023-03-30T17:05:22;17.27;;;13.88;;
54406;SDS011;40313;50.308;30.374;2023-03-30T17:08:47;19.63;;;12.02;;
54406;SDS011;40313;50.308;30.374;2023-03-30T17:12:14;188.20;;;102.95;;
54406;SDS011;40313;50.308;30.374;2023-03-30T17:19:04;22.30;;;10.55;;
54406;SDS011;40313;50.308;30.374;2023-03-30T17:22:42;32.85;;;7.68;;
54406;SDS011;40313;50.308;30.374;2023-03-30T17:26:07;17.10;;;9.07;;
54406;SDS011;40313;50.308;30.374;2023-03-30T17:29:34;21.00;;;7.63;;
54406;SDS011;40313;50.308;30.374;2023-03-30T17:33:00;13.18;;;8.02;;
54406;SDS011;40313;50.308;30.374;2023-03-30T17:36:26;23.58;;;10.00;;
54406;SDS011;40313;50.308;30.374;2023-03-30T17:39:51;20.23;;;10.25;;
54406;SDS011;40313;50.308;30.374;2023-03-30T17:43:16;18.65;;;9.50;;
54406;SDS011;40313;50.308;30.374;2023-03-30T17:46:42;18.50;;;11.65;;
54406;SDS011;40313;50.308;30.374;2023-03-30T17:50:19;23.02;;;11.10;;
54406;SDS011;40313;50.308;30.374;2023-03-30T17:53:44;20.80;;;11.07;;
54406;SDS011;40313;50.308;30.374;2023-03-30T17:57:09;20.55;;;11.02;;
54406;SDS011;40313;50.308;30.374;2023-03-30T18:00:39;19.02;;;9.82;;
54406;SDS011;40313;50.308;30.374;2023-03-30T18:04:06;18.90;;;11.30;;
54406;SDS011;40313;50.308;30.374;2023-03-30T18:07:31;33.80;;;11.10;;
54406;SDS011;40313;50.308;30.374;2023-03-30T18:10:57;14.82;;;9.68;;
54406;SDS011;40313;50.308;30.374;2023-03-30T18:14:22;23.10;;;10.32;;
54406;SDS011;40313;50.308;30.374;2023-03-30T18:17:49;12.30;;;8.35;;
54406;SDS011;40313;50.308;30.374;2023-03-30T18:21:15;14.13;;;8.68;;
54406;SDS011;40313;50.308;30.374;2023-03-30T18:28:08;12.13;;;6.93;;
54406;SDS011;40313;50.308;30.374;2023-03-30T18:31:44;10.23;;;7.70;;
54406;SDS011;40313;50.308;30.374;2023-03-30T18:35:09;9.77;;;7.55;;
54406;SDS011;40313;50.308;30.374;2023-03-30T18:38:37;8.13;;;7.32;;
54406;SDS011;40313;50.308;30.374;2023-03-30T18:42:02;9.25;;;7.55;;
54406;SDS011;40313;50.308;30.374;2023-03-30T18:45:29;11.18;;;7.95;;
54406;SDS011;40313;50.308;30.374;2023-03-30T18:48:54;22.60;;;7.90;;
54406;SDS011;40313;50.308;30.374;2023-03-30T18:52:19;12.80;;;8.60;;
54406;SDS011;40313;50.308;30.374;2023-03-30T18:55:47;43.88;;;11.63;;
54406;SDS011;40313;50.308;30.374;2023-03-30T18:59:13;27.77;;;12.23;;
54406;SDS011;40313;50.308;30.374;2023-03-30T19:02:53;29.23;;;10.68;;
54406;SDS011;40313;50.308;30.374;2023-03-30T19:06:18;12.00;;;10.85;;
54406;SDS011;40313;50.308;30.374;2023-03-30T19:09:45;14.38;;;10.05;;
54406;SDS011;40313;50.308;30.374;2023-03-30T19:13:13;21.60;;;10.50;;
54406;SDS011;40313;50.308;30.374;2023-03-30T19:16:38;21.25;;;11.15;;
54406;SDS011;40313;50.308;30.374;2023-03-30T19:20:04;23.05;;;10.90;;
54406;SDS011;40313;50.308;30.374;2023-03-30T19:23:29;16.75;;;12.15;;
54406;SDS011;40313;50.308;30.374;2023-03-30T19:26:54;28.30;;;10.90;;
54406;SDS011;40313;50.308;30.374;2023-03-30T19:30:22;15.77;;;10.95;;
54406;SDS011;40313;50.308;30.374;2023-03-30T19:33:48;30.60;;;11.45;;
54406;SDS011;40313;50.308;30.374;2023-03-30T19:37:13;19.70;;;9.75;;
54406;SDS011;40313;50.308;30.374;2023-03-30T19:40:38;19.02;;;9.93;;
54406;SDS011;40313;50.308;30.374;2023-03-30T19:44:03;27.13;;;11.30;;
54406;SDS011;40313;50.308;30.374;2023-03-30T19:47:30;16.67;;;8.60;;
54406;SDS011;40313;50.308;30.374;2023-03-30T19:54:20;53.25;;;21.10;;
54406;SDS011;40313;50.308;30.374;2023-03-30T19:57:46;80.60;;;35.70;;
54406;SDS011;40313;50.308;30.374;2023-03-30T20:01:11;107.03;;;51.60;;
54406;SDS011;40313;50.308;30.374;2023-03-30T20:04:38;111.63;;;47.60;;
54406;SDS011;40313;50.308;30.374;2023-03-30T20:08:03;102.40;;;47.35;;
54406;SDS011;40313;50.308;30.374;2023-03-30T20:11:29;83.63;;;39.17;;
54406;SDS011;40313;50.308;30.374;2023-03-30T20:14:54;69.57;;;32.53;;
54406;SDS011;40313;50.308;30.374;2023-03-30T20:18:19;63.03;;;26.05;;
54406;SDS011;40313;50.308;30.374;2023-03-30T20:21:47;37.17;;;20.30;;
54406;SDS011;40313;50.308;30.374;2023-03-30T20:25:17;40.67;;;20.42;;
54406;SDS011;40313;50.308;30.374;2023-03-30T20:28:43;41.65;;;19.17;;
54406;SDS011;40313;50.308;30.374;2023-03-30T20:32:08;41.78;;;19.85;;
54406;SDS011;40313;50.308;30.374;2023-03-30T20:35:33;31.52;;;17.00;;
54406;SDS011;40313;50.308;30.374;2023-03-30T20:39:00;31.00;;;17.17;;
54406;SDS011;40313;50.308;30.374;2023-03-30T20:42:33;18.60;;;12.35;;
54406;SDS011;40313;50.308;30.374;2023-03-30T20:46:09;24.42;;;14.45;;
54406;SDS011;40313;50.308;30.374;2023-03-30T20:49:35;29.50;;;13.20;;
54406;SDS011;40313;50.308;30.374;2023-03-30T20:53:00;22.23;;;11.82;;
54406;SDS011;40313;50.308;30.374;2023-03-30T20:56:26;18.70;;;11.50;;
54406;SDS011;40313;50.308;30.374;2023-03-30T20:59:51;19.88;;;10.73;;
54406;SDS011;40313;50.308;30.374;2023-03-30T21:03:17;29.38;;;9.57;;
54406;SDS011;40313;50.308;30.374;2023-03-30T21:06:42;17.45;;;9.60;;
54406;SDS011;40313;50.308;30.374;2023-03-30T21:10:12;17.08;;;9.52;;
54406;SDS011;40313;50.308;30.374;2023-03-30T21:13:37;16.08;;;7.85;;
54406;SDS011;40313;50.308;30.374;2023-03-30T21:17:02;7.70;;;4.72;;
54406;SDS011;40313;50.308;30.374;2023-03-30T21:20:27;11.55;;;6.07;;
54406;SDS011;40313;50.308;30.374;2023-03-30T21:23:52;11.10;;;6.93;;
54406;SDS011;40313;50.308;30.374;2023-03-30T21:27:19;6.55;;;5.97;;
54406;SDS011;40313;50.308;30.374;2023-03-30T21:30:44;7.13;;;6.38;;
54406;SDS011;40313;50.308;30.374;2023-03-30T21:34:10;7.75;;;5.85;;
54406;SDS011;40313;50.308;30.374;2023-03-30T21:37:35;22.50;;;7.45;;
54406;SDS011;40313;50.308;30.374;2023-03-30T21:41:01;16.25;;;7.03;;
54406;SDS011;40313;50.308;30.374;2023-03-30T21:44:28;10.10;;;7.40;;
54406;SDS011;40313;50.308;30.374;2023-03-30T21:47:53;10.73;;;6.65;;
54406;SDS011;40313;50.308;30.374;2023-03-30T21:51:19;10.60;;;6.47;;
54406;SDS011;40313;50.308;30.374;2023-03-30T21:54:44;16.17;;;8.50;;
54406;SDS011;40313;50.308;30.374;2023-03-30T21:58:12;12.80;;;9.45;;
54406;SDS011;40313;50.308;30.374;2023-03-30T22:05:12;11.95;;;8.98;;
54406;SDS011;40313;50.308;30.374;2023-03-30T22:08:38;18.38;;;10.45;;
54406;SDS011;40313;50.308;30.374;2023-03-30T22:12:03;17.60;;;10.15;;
54406;SDS011;40313;50.308;30.374;2023-03-30T22:15:28;17.38;;;10.02;;
54406;SDS011;40313;50.308;30.374;2023-03-30T22:18:56;14.73;;;10.85;;
54406;SDS011;40313;50.308;30.374;2023-03-30T22:22:22;18.02;;;10.60;;
54406;SDS011;40313;50.308;30.374;2023-03-30T22:25:48;23.27;;;11.70;;
54406;SDS011;40313;50.308;30.374;2023-03-30T22:29:14;14.85;;;10.55;;
54406;SDS011;40313;50.308;30.374;2023-03-30T22:32:39;14.68;;;10.40;;
54406;SDS011;40313;50.308;30.374;2023-03-30T22:36:04;25.60;;;12.10;;
54406;SDS011;40313;50.308;30.374;2023-03-30T22:39:31;14.05;;;10.80;;
54406;SDS011;40313;50.308;30.374;2023-03-30T22:42:56;21.80;;;12.18;;
54406;SDS011;40313;50.308;30.374;2023-03-30T22:46:23;23.77;;;14.25;;
54406;SDS011;40313;50.308;30.374;2023-03-30T22:49:48;19.00;;;16.08;;
54406;SDS011;40313;50.308;30.374;2023-03-30T22:53:14;26.73;;;15.82;;
54406;SDS011;40313;50.308;30.374;2023-03-30T22:56:41;31.67;;;16.40;;
54406;SDS011;40313;50.308;30.374;2023-03-30T23:00:06;25.75;;;14.93;;
54406;SDS011;40313;50.308;30.374;2023-03-30T23:03:34;29.80;;;16.67;;
54406;SDS011;40313;50.308;30.374;2023-03-30T23:07:00;22.33;;;16.08;;
54406;SDS011;40313;50.308;30.374;2023-03-30T23:10:25;28.40;;;14.48;;
54406;SDS011;40313;50.308;30.374;2023-03-30T23:13:51;33.25;;;15.10;;
54406;SDS011;40313;50.308;30.374;2023-03-30T23:17:17;28.30;;;15.73;;
54406;SDS011;40313;50.308;30.374;2023-03-30T23:20:42;19.42;;;14.55;;
54406;SDS011;40313;50.308;30.374;2023-03-30T23:27:34;29.85;;;14.48;;
54406;SDS011;40313;50.308;30.374;2023-03-30T23:31:05;23.98;;;15.38;;
54406;SDS011;40313;50.308;30.374;2023-03-30T23:34:31;37.63;;;15.43;;
54406;SDS011;40313;50.308;30.374;2023-03-30T23:37:56;25.02;;;14.02;;
54406;SDS011;40313;50.308;30.374;2023-03-30T23:41:22;17.73;;;14.20;;
54406;SDS011;40313;50.308;30.374;2023-03-30T23:44:47;31.67;;;14.13;;
54406;SDS011;40313;50.308;30.374;2023-03-30T23:48:14;25.73;;;15.32;;
54406;SDS011;40313;50.308;30.374;2023-03-30T23:51:41;28.67;;;14.80;;
54406;SDS011;40313;50.308;30.374;2023-03-30T23:55:06;22.77;;;13.95;;
54406;SDS011;40313;50.308;30.374;2023-03-30T23:58:36;28.63;;;13.93;;
